Informes de METARS cercanos

 

LEAL - Alicante/El Alte, Spain
Distance from station: SSE 60km
Actualización: 29/01/2023 16:00
Parcialmente nuboso
Parcialmente nuboso
 Viento del ENE
Viento: ENE 22 km/h
Temperatura: 11°C
Rocío: 3°C
Humedad: 58%
Barómetro: 1024 hPa
Clouds: Parcialmente nuboso
Visibility: 10 km
Cloud details: Poco nuboso 914 m
Parcialmente nuboso 1676 m
2023/01/29 15:00 LEAL 291500Z 06012KT 030V090 9999 FEW030 SCT055 11/03 Q1024 NOSIG
LEVC - Valencia (civ/Mi, Spain
Distance from station: NNE 84km
Actualización: 29/01/2023 16:00
Muy nuboso
Muy nuboso
 Viento del ENE
Viento: ENE 11 km/h
Temperatura: 9°C
Wind Chill: 7°C
Rocío: 0°C
Humedad: 54%
Barómetro: 1025 hPa
Clouds: Muy nuboso
Visibility: 10 km
Cloud details: Muy nuboso 1524 m
2023/01/29 15:00 LEVC 291500Z 06006KT 030V140 9999 BKN050 09/M00 Q1025 NOSIG
 
LEAB - Albacete (civ/Mi, Spain
Distance from station: O 95km
Actualización: 29/01/2023 16:00
Despejado
Despejado
 Viento del varies
Viento: varies 6 km/h
Temperatura: 7°C
Rocío: -2°C
Humedad: 53%
Barómetro: 1022 hPa
Resumen: Despejado
Visibility: greater than 10 km
2023/01/29 15:00 LEAB 291500Z VRB03KT CAVOK 07/M02 Q1022 NOSIG
LERI - Alcantarilla(Sp-, Spain
Distance from station: SSO 100km
Actualización: 29/01/2023 16:00
Parcialmente nuboso
Parcialmente nuboso
 Viento del varies
Viento: varies 4 km/h
Temperatura: 14°C
Rocío: -1°C
Humedad: 36%
Barómetro: 1023 hPa
Clouds: Parcialmente nuboso
Visibility: 10 km
Cloud details: Parcialmente nuboso 1280 m
2023/01/29 15:00 LERI 291500Z VRB02KT 9999 SCT042 14/M01 Q1023 NOSIG
 
LELC - San Javier(Mil/C, Spain
Distance from station: S 113km
Actualización: 29/01/2023 16:00
Parcialmente nuboso
Parcialmente nuboso
 Viento del NE
Viento: NE 20 km/h
Temperatura: 13°C
Rocío: 7°C
Humedad: 67%
Barómetro: 1023 hPa
Clouds: Parcialmente nuboso
Visibility: 10 km
Cloud details: Poco nuboso 610 m
Parcialmente nuboso 914 m
2023/01/29 15:00 LELC 291500Z 05011KT 020V100 9999 FEW020 SCT030 13/07 Q1023 NOSIG
LEIB - Ibiza/Es Codola, Spain
Distance from station: E 186km
Actualización: 29/01/2023 16:00
Parcialmente nuboso
Parcialmente nuboso
 Viento del NNE
Viento: NNE 17 km/h
Temperatura: 10°C
Wind Chill: 8°C
Rocío: 5°C
Humedad: 71%
Barómetro: 1023 hPa
Clouds: Parcialmente nuboso
Visibility: 10 km
Cloud details: Poco nuboso 427 m
Parcialmente nuboso 1158 m
2023/01/29 15:00 LEIB 291500Z 02009KT 350V050 9999 FEW014 SCT038TCU 10/05 Q1023 NOSIG
 
LEAM - Almeria Airport, Spain
Distance from station: SSO 256km
Actualización: 29/01/2023 16:00
Parcialmente nuboso
Parcialmente nuboso
 Viento del E
Viento: E 26 km/h
Temperatura: 13°C
Rocío: 3°C
Humedad: 51%
Barómetro: 1022 hPa
Clouds: Parcialmente nuboso
Visibility: 10 km
Cloud details: Poco nuboso 1219 m
Parcialmente nuboso 2134 m
2023/01/29 15:00 LEAM 291500Z 10014KT 9999 FEW040 SCT070 13/03 Q1022
LEMD - Madrid/Barajas, Spain
Distance from station: NO 305km
Actualización: 29/01/2023 16:00
Despejado
Despejado
 Viento del ENE
Viento: ENE 9 km/h
Temperatura: 8°C
Wind Chill: 6°C
Rocío: -4°C
Humedad: 43%
Barómetro: 1022 hPa
Resumen: Despejado
Visibility: greater than 10 km
2023/01/29 15:00 LEMD 291500Z 07005KT 350V120 CAVOK 08/M04 Q1022 NOSIG
 
LEPA - Palma De Mallorc, Spain
Distance from station: ENE 313km
Actualización: 29/01/2023 16:00
Parcialmente nuboso
Parcialmente nuboso
 Viento del ENE
Viento: ENE 26 km/h
Temperatura: 11°C
Rocío: 3°C
Humedad: 58%
Barómetro: 1023 hPa
Clouds: Parcialmente nuboso
Visibility: 10 km
Cloud details: Parcialmente nuboso 853 m
2023/01/29 15:00 LEPA 291500Z 06014KT 9999 SCT028 11/03 Q1023 NOSIG